createdAt,value
2022-12-18T00:01:32.523Z,86.40
2022-12-18T00:05:25.376Z,86.55
2022-12-18T00:09:18.743Z,86.60
2022-12-18T00:13:11.830Z,86.70
2022-12-18T00:17:04.390Z,86.48
2022-12-18T00:21:01.721Z,86.34
2022-12-18T00:24:54.131Z,86.27
2022-12-18T00:28:47.572Z,86.25
2022-12-18T00:32:40.146Z,86.22
2022-12-18T00:36:35.162Z,86.31
2022-12-18T00:40:27.785Z,86.23
2022-12-18T00:44:20.778Z,86.64
2022-12-18T00:48:13.323Z,86.82
2022-12-18T00:52:06.054Z,86.98
2022-12-18T00:55:58.505Z,86.83
2022-12-18T00:59:50.947Z,86.94
2022-12-18T01:03:43.849Z,87.13
2022-12-18T01:07:36.683Z,87.14
2022-12-18T01:11:29.264Z,87.10
2022-12-18T01:15:21.985Z,86.65
2022-12-18T01:19:14.857Z,86.79
2022-12-18T01:23:07.500Z,86.90
2022-12-18T01:27:00.186Z,87.12
2022-12-18T01:30:52.725Z,87.19
2022-12-18T01:34:45.324Z,86.99
2022-12-18T01:38:37.869Z,87.14
2022-12-18T01:42:30.495Z,86.74
2022-12-18T01:46:27.686Z,87.23
2022-12-18T01:50:25.749Z,86.97
2022-12-18T01:54:18.529Z,87.35
2022-12-18T01:58:11.527Z,87.00
2022-12-18T02:02:05.017Z,87.30
2022-12-18T02:06:08.398Z,87.63
2022-12-18T02:10:03.852Z,87.60
2022-12-18T02:14:02.792Z,87.54
2022-12-18T02:18:07.594Z,87.18
2022-12-18T02:22:06.435Z,87.52
2022-12-18T02:26:12.571Z,87.03
2022-12-18T02:30:07.387Z,87.41
2022-12-18T02:34:04.210Z,87.27
2022-12-18T02:37:57.672Z,87.13
2022-12-18T02:41:51.545Z,86.77
2022-12-18T02:45:49.672Z,86.89
2022-12-18T02:49:45.491Z,86.68
2022-12-18T02:53:45.160Z,86.63
2022-12-18T02:57:55.069Z,86.99
2022-12-18T03:02:04.003Z,86.50
2022-12-18T03:06:10.879Z,86.72
2022-12-18T03:10:04.645Z,87.20
2022-12-18T03:13:59.148Z,86.92
2022-12-18T03:18:10.136Z,86.80
2022-12-18T03:22:07.241Z,86.49
2022-12-18T03:26:07.711Z,86.24
2022-12-18T03:30:11.490Z,86.59
2022-12-18T03:34:10.206Z,86.55
2022-12-18T03:38:02.866Z,86.51
2022-12-18T03:42:07.631Z,86.63
2022-12-18T03:46:13.493Z,86.51
2022-12-18T03:50:38.860Z,86.46
2022-12-18T03:54:32.346Z,86.33
2022-12-18T03:58:27.331Z,86.10
2022-12-18T04:02:21.244Z,86.45
2022-12-18T04:06:15.936Z,86.73
2022-12-18T04:10:14.076Z,86.58
2022-12-18T04:14:07.486Z,86.86
2022-12-18T04:18:00.324Z,86.82
2022-12-18T04:21:52.982Z,86.88
2022-12-18T04:25:46.412Z,86.91
2022-12-18T04:29:38.896Z,86.92
2022-12-18T04:33:31.352Z,87.36
2022-12-18T04:37:24.009Z,87.37
2022-12-18T04:41:16.909Z,87.59
2022-12-18T04:45:10.055Z,87.44
2022-12-18T04:49:02.775Z,87.37
2022-12-18T04:52:55.565Z,87.54
2022-12-18T04:56:48.244Z,87.47
2022-12-18T05:00:40.878Z,87.31
2022-12-18T05:04:33.545Z,87.75
2022-12-18T05:08:26.064Z,87.41
2022-12-18T05:12:18.850Z,87.37
2022-12-18T05:16:12.406Z,87.24
2022-12-18T05:20:05.513Z,87.50
2022-12-18T05:23:58.738Z,87.67
2022-12-18T05:27:51.095Z,87.68
2022-12-18T05:31:43.753Z,87.72
2022-12-18T05:35:37.034Z,87.22
2022-12-18T05:39:29.784Z,87.34
2022-12-18T05:43:23.686Z,87.46
2022-12-18T05:47:16.204Z,87.18
2022-12-18T05:51:11.976Z,86.97
2022-12-18T05:55:06.067Z,87.17
2022-12-18T05:58:58.667Z,87.22
2022-12-18T06:02:51.315Z,87.93
2022-12-18T06:06:44.080Z,87.24
2022-12-18T06:10:37.491Z,87.51
2022-12-18T06:14:30.136Z,87.45
2022-12-18T06:18:22.700Z,87.47
2022-12-18T06:22:15.378Z,87.75
2022-12-18T06:26:10.789Z,87.34
2022-12-18T06:30:05.080Z,86.77
2022-12-18T06:33:57.553Z,86.38
2022-12-18T06:37:50.339Z,87.19
2022-12-18T06:41:43.557Z,87.53
2022-12-18T06:45:36.133Z,86.35
2022-12-18T06:49:30.655Z,87.10
2022-12-18T06:53:23.758Z,87.12
2022-12-18T06:57:16.599Z,87.69
2022-12-18T07:01:11.679Z,87.72
2022-12-18T07:05:10.686Z,87.68
2022-12-18T07:09:04.038Z,87.31
2022-12-18T07:12:57.257Z,87.39
2022-12-18T07:16:49.953Z,87.21
2022-12-18T07:20:42.634Z,87.49
2022-12-18T07:24:36.553Z,87.19
2022-12-18T07:28:29.154Z,87.33
2022-12-18T07:32:21.885Z,87.29
2022-12-18T07:36:15.718Z,87.13
2022-12-18T07:40:09.384Z,86.97
2022-12-18T07:44:01.978Z,86.94
2022-12-18T07:47:54.864Z,87.20
2022-12-18T07:51:50.260Z,87.11
2022-12-18T07:56:17.759Z,87.14
2022-12-18T07:59:56.967Z,87.21
2022-12-18T08:03:50.199Z,87.23
2022-12-18T08:07:44.906Z,87.12
2022-12-18T08:11:37.739Z,86.90
2022-12-18T08:15:30.537Z,86.68
2022-12-18T08:19:23.164Z,86.51
2022-12-18T08:23:15.901Z,86.21
2022-12-18T08:31:22.163Z,85.50
2022-12-18T08:35:18.715Z,85.17
2022-12-18T08:39:11.283Z,84.99
2022-12-18T08:43:22.898Z,84.96
2022-12-18T08:47:15.865Z,84.60
2022-12-18T08:51:10.758Z,83.60
2022-12-18T08:55:03.432Z,83.04
2022-12-18T08:58:56.253Z,83.11
2022-12-18T09:02:49.053Z,82.91
2022-12-18T09:06:42.474Z,82.98
2022-12-18T09:10:40.185Z,82.66
2022-12-18T09:14:35.858Z,82.79
2022-12-18T09:18:28.532Z,83.53
2022-12-18T09:22:21.952Z,83.87
2022-12-18T09:26:14.564Z,83.54
2022-12-18T09:30:08.307Z,83.09
2022-12-18T09:34:00.965Z,82.10
2022-12-18T09:37:54.506Z,81.30
2022-12-18T09:41:54.828Z,80.77
2022-12-18T09:45:52.875Z,80.59
2022-12-18T09:49:52.318Z,80.50
2022-12-18T09:53:52.072Z,79.83
2022-12-18T09:57:52.540Z,79.37
2022-12-18T10:01:47.419Z,78.63
2022-12-18T10:06:28.271Z,79.40
2022-12-18T10:10:48.367Z,79.31
2022-12-18T10:14:56.931Z,78.13
2022-12-18T10:19:08.077Z,77.87
2022-12-18T10:23:11.245Z,78.33
2022-12-18T10:27:17.739Z,78.54
2022-12-18T10:31:18.324Z,78.73
2022-12-18T10:35:21.892Z,78.85
2022-12-18T10:39:27.370Z,78.06
2022-12-18T10:43:24.697Z,77.11
2022-12-18T10:47:20.174Z,77.27
2022-12-18T10:51:25.244Z,77.10
2022-12-18T10:55:19.193Z,76.92
2022-12-18T10:59:18.033Z,76.08
2022-12-18T11:03:39.016Z,76.40
2022-12-18T11:07:50.430Z,76.42
2022-12-18T11:11:50.288Z,76.75
2022-12-18T11:15:43.463Z,76.11
2022-12-18T11:19:38.843Z,76.60
2022-12-18T11:23:31.422Z,76.25
2022-12-18T11:27:24.336Z,76.27
2022-12-18T11:31:29.497Z,74.55
2022-12-18T11:35:30.862Z,74.65
2022-12-18T11:39:47.612Z,74.49
2022-12-18T11:43:48.816Z,74.07
2022-12-18T11:47:53.592Z,74.32
2022-12-18T11:52:03.971Z,73.86
2022-12-18T11:56:18.667Z,73.29
2022-12-18T12:00:19.991Z,74.39
2022-12-18T12:04:34.463Z,74.29
2022-12-18T12:08:54.875Z,72.48
2022-12-18T12:13:24.994Z,72.92
2022-12-18T12:17:50.012Z,73.44
2022-12-18T12:21:47.479Z,73.68
2022-12-18T12:25:44.260Z,72.91
2022-12-18T12:29:57.573Z,73.70
2022-12-18T12:34:11.167Z,73.69
2022-12-18T12:38:21.770Z,74.21
2022-12-18T12:43:08.145Z,74.40
2022-12-18T12:47:15.713Z,73.92
2022-12-18T12:56:00.664Z,74.06
2022-12-18T13:00:18.785Z,74.36
2022-12-18T13:05:01.685Z,73.76
2022-12-18T13:09:06.975Z,74.36
2022-12-18T13:13:23.730Z,74.94
2022-12-18T13:17:46.827Z,75.23
2022-12-18T13:22:00.082Z,75.15
2022-12-18T13:26:28.895Z,75.25
2022-12-18T13:35:25.678Z,75.36
2022-12-18T13:44:14.253Z,74.89
2022-12-18T13:48:38.448Z,75.86
2022-12-18T13:53:01.578Z,74.85
2022-12-18T13:57:10.047Z,75.35
2022-12-18T14:01:06.174Z,75.75
2022-12-18T14:05:29.780Z,75.92
2022-12-18T14:09:48.461Z,75.67
2022-12-18T14:13:44.506Z,75.77
2022-12-18T14:17:39.602Z,75.92
2022-12-18T14:21:49.890Z,76.40
2022-12-18T14:26:11.836Z,76.72
2022-12-18T14:30:26.687Z,77.12
2022-12-18T14:34:20.532Z,77.62
2022-12-18T14:38:26.008Z,77.58
2022-12-18T14:42:18.783Z,78.02
2022-12-18T14:46:35.525Z,78.51
2022-12-18T14:50:28.843Z,78.91
2022-12-18T14:54:23.189Z,79.40
2022-12-18T14:58:18.962Z,79.60
2022-12-18T15:02:24.166Z,79.84
2022-12-18T15:06:46.017Z,80.48
2022-12-18T15:10:49.218Z,80.56
2022-12-18T15:14:48.457Z,80.92
2022-12-18T15:18:46.795Z,81.48
2022-12-18T15:22:39.751Z,81.96
2022-12-18T15:26:41.001Z,82.29
2022-12-18T15:30:35.225Z,82.36
2022-12-18T15:34:29.371Z,82.58
2022-12-18T15:38:22.390Z,82.78
2022-12-18T15:42:34.396Z,83.05
2022-12-18T15:46:28.481Z,83.24
2022-12-18T15:50:23.742Z,83.46
2022-12-18T15:54:17.514Z,83.62
2022-12-18T15:58:12.919Z,83.85
2022-12-18T16:02:19.336Z,83.90
2022-12-18T16:06:12.419Z,84.27
2022-12-18T16:10:06.635Z,84.55
2022-12-18T16:14:00.293Z,84.69
2022-12-18T16:17:53.972Z,84.89
2022-12-18T16:21:49.503Z,84.91
2022-12-18T16:25:42.586Z,85.01
2022-12-18T16:29:36.205Z,84.94
2022-12-18T16:33:29.744Z,85.37
2022-12-18T16:37:23.465Z,85.49
2022-12-18T16:41:33.151Z,85.47
2022-12-18T16:45:27.806Z,85.35
2022-12-18T16:49:23.185Z,85.62
2022-12-18T16:53:16.913Z,85.31
2022-12-18T16:57:16.988Z,85.24
2022-12-18T17:01:12.276Z,85.57
2022-12-18T17:05:07.219Z,85.88
2022-12-18T17:09:03.444Z,85.77
2022-12-18T17:12:57.225Z,86.07
2022-12-18T17:17:19.316Z,85.74
2022-12-18T17:21:10.143Z,85.61
2022-12-18T17:25:04.043Z,85.63
2022-12-18T17:28:58.615Z,85.85
2022-12-18T17:32:51.925Z,86.11
2022-12-18T17:36:47.001Z,86.19
2022-12-18T17:40:46.465Z,85.97
2022-12-18T17:44:43.160Z,85.80
2022-12-18T17:48:36.906Z,85.84
2022-12-18T17:52:34.808Z,85.34
2022-12-18T17:56:29.291Z,85.33
2022-12-18T18:00:22.955Z,85.42
2022-12-18T18:04:17.202Z,85.36
2022-12-18T18:08:10.497Z,85.60
2022-12-18T18:12:22.784Z,83.67
2022-12-18T18:16:16.791Z,84.59
2022-12-18T18:20:11.195Z,84.69
2022-12-18T18:24:05.058Z,84.86
2022-12-18T18:27:58.349Z,84.46
2022-12-18T18:31:52.128Z,85.40
2022-12-18T18:35:54.815Z,84.69
2022-12-18T18:39:48.376Z,85.05
2022-12-18T18:43:42.458Z,85.32
2022-12-18T18:47:36.615Z,85.84
2022-12-18T18:51:34.865Z,85.93
2022-12-18T18:55:28.600Z,86.08
2022-12-18T18:59:27.501Z,86.61
2022-12-18T19:03:26.114Z,86.02
2022-12-18T19:07:29.576Z,85.34
2022-12-18T19:11:44.508Z,85.07
2022-12-18T19:15:37.911Z,85.16
2022-12-18T19:19:32.211Z,85.10
2022-12-18T19:23:26.952Z,84.33
2022-12-18T19:27:20.826Z,84.43
2022-12-18T19:31:20.061Z,84.26
2022-12-18T19:35:18.007Z,84.50
2022-12-18T19:39:14.483Z,84.36
2022-12-18T19:43:09.051Z,84.89
2022-12-18T19:47:02.744Z,84.71
2022-12-18T19:50:55.843Z,84.95
2022-12-18T19:54:50.902Z,85.25
2022-12-18T19:58:45.662Z,85.61
2022-12-18T20:02:39.104Z,85.79
2022-12-18T20:06:33.448Z,85.30
2022-12-18T20:10:26.683Z,85.63
2022-12-18T20:14:23.527Z,84.19
2022-12-18T20:18:17.109Z,85.09
2022-12-18T20:22:13.854Z,85.47
2022-12-18T20:26:07.983Z,85.24
2022-12-18T20:30:02.085Z,85.69
2022-12-18T20:34:01.582Z,86.59
2022-12-18T20:37:57.686Z,86.80
2022-12-18T20:41:52.081Z,86.51
2022-12-18T20:45:44.921Z,85.89
2022-12-18T20:49:43.292Z,85.18
2022-12-18T20:53:41.915Z,85.27
2022-12-18T20:57:35.703Z,85.86
2022-12-18T21:01:31.805Z,86.34
2022-12-18T21:05:28.403Z,86.02
2022-12-18T21:09:21.948Z,86.19
2022-12-18T21:13:14.447Z,86.84
2022-12-18T21:17:07.552Z,86.65
2022-12-18T21:21:00.607Z,86.89
2022-12-18T21:24:53.999Z,85.92
2022-12-18T21:28:48.142Z,86.08
2022-12-18T21:32:41.244Z,86.29
2022-12-18T21:36:35.784Z,86.08
2022-12-18T21:40:28.522Z,86.06
2022-12-18T21:44:21.220Z,86.87
2022-12-18T21:48:14.129Z,86.92
2022-12-18T21:52:07.360Z,87.03
2022-12-18T21:56:00.763Z,87.49
2022-12-18T21:59:54.356Z,88.15
2022-12-18T22:03:47.312Z,89.05
2022-12-18T22:07:39.873Z,88.70
2022-12-18T22:11:32.956Z,88.04
2022-12-18T22:15:25.651Z,88.47
2022-12-18T22:19:19.659Z,88.96
2022-12-18T22:23:13.286Z,88.99
2022-12-18T22:27:05.601Z,88.32
2022-12-18T22:30:59.507Z,88.85
2022-12-18T22:34:52.622Z,89.25
2022-12-18T22:38:47.501Z,89.22
2022-12-18T22:42:40.850Z,89.34
2022-12-18T22:46:36.945Z,89.59
2022-12-18T22:50:29.731Z,90.58
2022-12-18T22:54:22.620Z,90.55
2022-12-18T22:58:15.230Z,90.54
2022-12-18T23:02:08.733Z,90.40
2022-12-18T23:06:09.546Z,91.03
2022-12-18T23:10:02.197Z,90.70
2022-12-18T23:13:56.609Z,90.35
2022-12-18T23:17:51.328Z,89.83
2022-12-18T23:21:44.213Z,89.95
2022-12-18T23:25:36.849Z,89.37
2022-12-18T23:29:29.547Z,89.57
2022-12-18T23:33:22.061Z,89.80
2022-12-18T23:37:35.360Z,91.02
2022-12-18T23:41:31.064Z,91.92
2022-12-18T23:45:23.774Z,91.73
2022-12-18T23:49:16.582Z,91.22
2022-12-18T23:53:09.838Z,91.68
2022-12-18T23:57:02.890Z,91.18
